Time;durP1;ratioP1;P1;durP2;ratioP2;P2;SDS_P1;SDS_P2;PMS_P1;PMS_P2;Temp;Humidity;BMP_temperature;BMP_pressure;BME280_temperature;BME280_humidity;BME280_pressure;Samples;Min_cycle;Max_cycle;Signal;HPM_P1;HPM_P2
2022/08/01 10:51:42;;;;;;;4.60;2.03;;;;;;;31.95;23.62;99619.44;5097173;27;1444014;-45
2022/08/01 10:54:10;;;;;;;4.82;2.50;;;;;;;31.75;24.36;99625.66;5127293;28;20078;-44
2022/08/01 10:56:56;;;;;;;7.07;2.83;;;;;;;31.40;25.04;99622.75;5127361;27;20050;-44
2022/08/01 10:59:26;;;;;;;4.60;2.70;;;;;;;31.26;25.51;99622.72;5125245;28;20039;-44
2022/08/01 11:02:00;;;;;;;6.25;2.35;;;;;;;31.41;25.05;99621.69;5126617;27;20035;-43
2022/08/01 11:05:00;;;;;;;4.40;2.15;;;;;;;32.07;24.40;99619.78;5123380;28;20062;-46
2022/08/01 11:07:49;;;;;;;5.57;2.80;;;;;;;32.59;24.06;99611.34;5117999;28;20047;-42
2022/08/01 11:10:39;;;;;;;6.28;2.55;;;;;;;33.19;22.91;99608.03;5123795;28;20456;-43
2022/08/01 11:13:07;;;;;;;6.32;3.10;;;;;;;33.82;22.81;99615.97;5117143;27;20047;-43
2022/08/01 11:15:34;;;;;;;6.43;2.95;;;;;;;34.76;22.59;99589.66;5127138;27;20035;-45
2022/08/01 11:18:24;;;;;;;4.93;3.00;;;;;;;35.80;21.37;99614.69;5127428;28;20040;-44
2022/08/01 11:20:58;;;;;;;3.75;2.80;;;;;;;37.09;20.05;99624.94;5112479;28;20131;-44
2022/08/01 11:23:31;;;;;;;5.30;2.80;;;;;;;37.74;19.61;99615.97;5114951;27;20070;-43
2022/08/01 11:26:02;;;;;;;5.55;2.50;;;;;;;37.77;19.21;99612.00;5116623;28;20045;-44
2022/08/01 11:28:29;;;;;;;7.65;2.90;;;;;;;36.37;20.58;99586.63;5118589;28;20043;-46
2022/08/01 11:31:07;;;;;;;8.63;2.95;;;;;;;35.22;21.88;99601.25;5121720;28;20495;-44
2022/08/01 11:33:40;;;;;;;6.45;4.60;;;;;;;34.28;22.34;99597.19;5123261;28;20243;-51
2022/08/01 11:36:12;;;;;;;5.65;3.05;;;;;;;33.41;22.68;99589.88;5109080;28;20075;-45
2022/08/01 11:38:42;;;;;;;7.80;3.33;;;;;;;32.60;23.78;99587.97;5125629;28;20035;-42
2022/08/01 11:41:29;;;;;;;5.80;2.95;;;;;;;32.34;24.18;99583.22;5127585;27;20038;-47
2022/08/01 11:44:02;;;;;;;;;;;;;;;33.25;23.54;99584.84;5121622;27;20138;-42
2022/08/01 11:46:50;;;;;;;7.57;2.70;;;;;;;34.50;23.13;99589.69;5126875;27;19919;-45
2022/08/01 11:49:35;;;;;;;3.30;2.42;;;;;;;35.14;21.51;99596.00;5123760;28;20441;-42
2022/08/01 11:52:07;;;;;;;3.88;2.40;;;;;;;34.98;21.41;99561.34;5126874;28;20048;-43
2022/08/01 11:54:41;;;;;;;4.60;2.38;;;;;;;35.00;21.43;99582.75;5127256;27;20040;-44
2022/08/01 11:57:17;;;;;;;8.93;5.25;;;;;;;35.34;21.21;99581.63;5120659;28;20052;-43
2022/08/01 12:00:04;;;;;;;5.50;3.10;;;;;;;34.47;21.94;99580.13;5116096;28;20031;-44
2022/08/01 12:02:39;;;;;;;8.80;2.50;;;;;;;33.79;22.15;99575.94;5108643;28;20036;-48
2022/08/01 12:05:11;;;;;;;3.92;2.58;;;;;;;32.98;23.30;99566.84;5112231;28;20464;-43
2022/08/01 12:07:38;;;;;;;3.83;2.20;;;;;;;32.22;23.51;99537.16;5113536;28;20467;-46
2022/08/01 12:10:16;;;;;;;3.53;2.60;;;;;;;31.62;24.45;99566.34;5113276;28;20047;-44
2022/08/01 12:12:45;;;;;;;5.43;2.55;;;;;;;31.26;25.47;99563.63;5111795;28;20422;-43
2022/08/01 12:15:12;;;;;;;8.18;2.40;;;;;;;31.06;25.70;99560.69;5112893;28;20039;-45
2022/08/01 12:17:41;;;;;;;8.15;2.50;;;;;;;31.02;26.59;99560.25;5112888;27;20051;-47
2022/08/01 12:20:13;;;;;;;3.88;2.25;;;;;;;31.22;26.22;99560.50;5111636;28;20040;-45
2022/08/01 12:22:38;;;;;;;7.43;2.95;;;;;;;31.25;27.01;99560.09;5111073;28;20043;-46
2022/08/01 12:25:07;;;;;;;8.95;3.42;;;;;;;32.20;26.65;99563.41;5108767;28;20062;-43
2022/08/01 12:27:32;;;;;;;;;;;;;;;34.37;23.75;99561.66;5110588;28;20066;-44
2022/08/01 12:29:59;;;;;;;4.57;3.08;;;;;;;36.18;21.91;99559.69;5111009;28;19919;-45
2022/08/01 12:32:31;;;;;;;4.10;2.92;;;;;;;36.94;20.15;99573.78;5108416;28;20043;-45
2022/08/01 12:35:01;;;;;;;4.63;2.90;;;;;;;37.41;19.27;99566.75;5111162;28;20046;-44
2022/08/01 12:37:29;;;;;;;5.50;2.78;;;;;;;36.64;19.83;99554.69;5109188;28;20047;-44
2022/08/01 12:39:55;;;;;;;8.63;4.70;;;;;;;36.67;19.76;99556.16;5111483;28;20040;-44
2022/08/01 12:42:22;;;;;;;4.82;3.00;;;;;;;37.29;19.03;99555.84;5108452;28;20046;-44
2022/08/01 12:44:51;;;;;;;3.90;2.80;;;;;;;37.39;18.71;99541.72;5106675;28;20063;-46
2022/08/01 12:47:17;;;;;;;6.05;2.83;;;;;;;37.12;18.88;99537.72;5110284;28;20039;-44
2022/08/01 12:49:44;;;;;;;6.77;2.73;;;;;;;36.78;18.71;99553.53;5110467;28;20114;-47
2022/08/01 12:52:11;;;;;;;4.47;2.50;;;;;;;36.10;19.45;99552.66;5109962;28;20131;-44
2022/08/01 12:54:59;;;;;;;5.05;2.28;;;;;;;34.23;21.20;99548.41;5108830;28;20039;-44
2022/08/01 12:57:25;;;;;;;7.00;2.45;;;;;;;33.09;22.47;99547.44;5109582;28;20123;-43
2022/08/01 13:00:15;;;;;;;4.18;2.53;;;;;;;32.27;23.50;99536.56;5106917;28;20074;-46
2022/08/01 13:02:42;;;;;;;4.32;2.42;;;;;;;31.62;24.03;99534.91;5108968;28;20040;-44
2022/08/01 13:05:09;;;;;;;6.15;3.17;;;;;;;31.13;24.78;99532.06;5107020;28;20039;-43
2022/08/01 13:07:39;;;;;;;5.65;2.67;;;;;;;30.84;26.03;99532.06;5107164;28;20047;-46
2022/08/01 13:10:06;;;;;;;5.50;2.38;;;;;;;30.45;27.22;99510.84;5108097;28;20067;-47
2022/08/01 13:12:32;;;;;;;3.78;2.60;;;;;;;30.23;27.98;99529.50;5106989;28;20101;-43
2022/08/01 13:14:58;;;;;;;7.00;2.50;;;;;;;30.16;27.86;99520.50;5107980;28;20036;-44
2022/08/01 13:17:38;;;;;;;4.55;2.60;;;;;;;30.21;27.37;99514.59;5108869;28;20050;-45
2022/08/01 13:20:05;;;;;;;3.03;2.15;;;;;;;30.25;27.27;99521.28;5108355;28;20400;-46
2022/08/01 13:22:35;;;;;;;8.00;2.50;;;;;;;29.96;27.27;99497.91;5108763;28;20043;-45
2022/08/01 13:25:14;;;;;;;5.97;2.90;;;;;;;29.78;27.12;99516.16;5108983;28;20035;-44
2022/08/01 13:27:40;;;;;;;6.15;2.25;;;;;;;29.56;27.64;99525.00;5110805;28;20723;-43
2022/08/01 13:30:18;;;;;;;4.55;2.88;;;;;;;29.38;27.50;99531.47;5111067;28;20048;-43
2022/08/01 13:32:58;;;;;;;3.30;2.28;;;;;;;29.17;27.81;99522.34;5111680;28;20066;-44
2022/08/01 13:35:24;;;;;;;5.18;2.88;;;;;;;29.02;28.15;99516.91;5111473;28;20096;-45
2022/08/01 13:37:50;;;;;;;6.68;3.13;;;;;;;28.88;28.68;99520.34;5110403;28;20522;-45
2022/08/01 13:40:24;;;;;;;3.60;2.30;;;;;;;28.71;28.86;99524.03;5101388;28;20508;-45
2022/08/01 13:42:49;;;;;;;3.92;2.40;;;;;;;28.63;28.64;99525.72;5107603;28;20513;-42
2022/08/01 13:45:15;;;;;;;5.40;2.55;;;;;;;28.60;29.02;99528.75;5108080;28;20067;-45
2022/08/01 13:47:42;;;;;;;4.95;2.65;;;;;;;28.52;29.42;99530.63;5107308;28;20044;-44
2022/08/01 13:50:08;;;;;;;6.93;3.47;;;;;;;28.50;29.42;99528.09;5109771;28;20555;-43
2022/08/01 13:52:34;;;;;;;5.13;2.92;;;;;;;28.60;29.49;99533.25;5092331;28;20035;-45
2022/08/01 13:55:01;;;;;;;12.35;3.40;;;;;;;28.55;29.55;99523.06;5091088;28;20670;-43
2022/08/01 13:57:27;;;;;;;4.05;2.70;;;;;;;28.52;29.45;99530.63;5104022;28;20092;-45
2022/08/01 13:59:53;;;;;;;4.28;2.72;;;;;;;28.47;29.54;99523.09;5106932;28;20043;-45
2022/08/01 14:02:19;;;;;;;8.02;3.13;;;;;;;28.34;29.49;99520.13;5111472;28;20031;-46
2022/08/01 14:04:45;;;;;;;6.95;4.40;;;;;;;28.25;29.45;99525.66;5110545;28;20426;-44
2022/08/01 14:07:10;;;;;;;7.38;3.42;;;;;;;27.73;29.66;99476.06;5109746;28;20044;-43
2022/08/01 14:09:37;;;;;;;7.30;3.38;;;;;;;27.85;30.16;99531.81;5090788;28;20043;-43
2022/08/01 14:12:04;;;;;;;3.80;2.78;;;;;;;27.73;30.13;99524.16;5099803;28;20035;-44
2022/08/01 14:14:30;;;;;;;3.97;2.53;;;;;;;27.59;30.33;99529.28;5111143;28;20039;-48
2022/08/01 14:16:56;;;;;;;9.32;4.80;;;;;;;27.48;30.76;99522.38;5111161;28;20046;-44
2022/08/01 14:19:22;;;;;;;5.30;2.75;;;;;;;27.36;30.98;99521.03;5111098;28;20130;-46
2022/08/01 14:21:48;;;;;;;6.43;2.90;;;;;;;27.29;31.17;99528.03;5109371;28;20458;-53
2022/08/01 14:24:13;;;;;;;8.60;2.50;;;;;;;26.88;31.00;99489.69;5110610;28;20043;-49
2022/08/01 14:26:39;;;;;;;6.53;2.70;;;;;;;27.01;31.05;99515.94;5109366;28;20076;-49
2022/08/01 14:29:05;;;;;;;8.73;3.17;;;;;;;26.90;30.94;99525.06;5110546;28;20051;-50
2022/08/01 14:31:31;;;;;;;4.85;2.53;;;;;;;26.77;31.50;99517.47;5109422;28;20760;-52
2022/08/01 14:33:56;;;;;;;4.72;2.70;;;;;;;26.66;31.93;99516.91;5109388;28;20045;-51
2022/08/01 14:36:22;;;;;;;7.28;2.80;;;;;;;26.53;32.20;99517.38;5109477;28;20044;-49
2022/08/01 14:38:48;;;;;;;6.85;2.95;;;;;;;26.41;32.53;99521.28;5110584;28;20411;-52
2022/08/01 14:41:14;;;;;;;5.55;2.95;;;;;;;26.31;32.78;99523.22;5109932;28;20046;-58
2022/08/01 14:43:40;;;;;;;7.00;3.22;;;;;;;26.21;32.87;99522.44;5108999;28;20046;-57
2022/08/01 14:46:07;;;;;;;6.38;3.10;;;;;;;26.07;32.87;99513.19;5110115;28;20044;-54
2022/08/01 14:48:34;;;;;;;10.82;3.33;;;;;;;25.99;32.95;99513.97;5108413;28;20039;-59
2022/08/01 14:51:02;;;;;;;8.90;2.78;;;;;;;25.92;32.67;99512.06;5107878;28;20056;-53
2022/08/01 14:53:29;;;;;;;6.57;3.10;;;;;;;25.86;32.87;99510.84;5109362;28;20088;-56
2022/08/01 14:55:54;;;;;;;6.00;2.97;;;;;;;25.78;32.94;99516.13;5110492;28;20031;-55
2022/08/01 14:58:20;;;;;;;13.00;3.45;;;;;;;25.67;33.17;99514.53;5110345;28;20122;-54
2022/08/01 15:00:47;;;;;;;5.50;3.17;;;;;;;25.58;33.23;99510.13;5110623;28;20035;-53
2022/08/01 15:03:12;;;;;;;8.60;2.90;;;;;;;25.37;33.59;99482.09;5109332;28;20044;-54
2022/08/01 15:05:38;;;;;;;7.97;2.90;;;;;;;25.44;33.75;99507.09;5110545;28;20085;-54
2022/08/01 15:08:06;;;;;;;6.88;2.78;;;;;;;25.22;33.77;99487.09;5110259;28;20036;-57
2022/08/01 15:10:32;;;;;;;6.28;2.88;;;;;;;25.29;34.09;99509.44;5109074;28;20059;-51
2022/08/01 15:12:59;;;;;;;7.15;2.97;;;;;;;25.25;34.18;99505.41;5110193;28;20499;-54
2022/08/01 15:15:26;;;;;;;5.53;3.08;;;;;;;25.19;34.08;99501.53;5110444;28;20089;-54
2022/08/01 15:17:53;;;;;;;6.88;3.40;;;;;;;25.13;34.29;99506.59;5110269;28;20515;-55
2022/08/01 15:20:19;;;;;;;8.68;3.47;;;;;;;25.07;33.91;99508.03;5109177;28;20032;-55
2022/08/01 15:22:45;;;;;;;10.75;3.42;;;;;;;25.09;34.13;99502.56;5110251;28;20125;-56
2022/08/01 15:25:10;;;;;;;5.80;2.80;;;;;;;25.07;34.13;99508.03;5109952;28;20586;-55
2022/08/01 15:27:36;;;;;;;8.02;3.00;;;;;;;24.93;34.35;99483.78;5108634;28;20043;-54
2022/08/01 15:30:03;;;;;;;11.10;2.70;;;;;;;24.93;34.44;99475.78;5110191;28;20423;-55
2022/08/01 15:32:29;;;;;;;5.25;2.75;;;;;;;25.07;34.59;99505.38;5108312;28;20039;-53
2022/08/01 15:34:55;;;;;;;6.72;2.55;;;;;;;25.05;34.56;99494.06;5110050;28;20046;-53
2022/08/01 15:37:21;;;;;;;5.78;3.22;;;;;;;25.03;35.01;99501.34;5110811;28;20035;-56
2022/08/01 15:39:47;;;;;;;6.45;2.42;;;;;;;25.01;34.97;99497.19;5113838;28;20042;-56
2022/08/01 15:42:14;;;;;;;6.22;2.28;;;;;;;24.96;35.02;99489.66;5113649;28;20047;-51
2022/08/01 15:44:40;;;;;;;6.78;2.53;;;;;;;24.76;34.90;99470.25;5113532;28;20040;-53
2022/08/01 15:47:07;;;;;;;6.18;2.60;;;;;;;24.92;34.92;99495.38;5112412;28;20038;-56
2022/08/01 15:49:35;;;;;;;6.07;2.88;;;;;;;24.90;35.23;99484.91;5112176;28;20430;-53
2022/08/01 15:52:03;;;;;;;6.35;2.55;;;;;;;24.91;35.16;99491.06;5113823;28;20174;-54
2022/08/01 15:54:33;;;;;;;4.63;2.55;;;;;;;24.74;35.03;99460.75;5113124;28;20036;-53
2022/08/01 15:56:59;;;;;;;4.38;2.42;;;;;;;24.59;35.35;99439.16;5112473;28;20035;-54
2022/08/01 15:59:25;;;;;;;4.50;2.40;;;;;;;24.91;35.47;99488.41;5113444;28;20093;-55
2022/08/01 16:01:51;;;;;;;4.07;2.47;;;;;;;24.87;36.38;99487.81;5113509;28;20518;-53
2022/08/01 16:04:18;;;;;;;6.80;2.80;;;;;;;24.67;36.75;99462.31;5112020;28;20043;-55
2022/08/01 16:06:44;;;;;;;8.35;2.55;;;;;;;24.76;36.28;99486.19;5113449;28;20422;-52
2022/08/01 16:09:10;;;;;;;5.70;2.70;;;;;;;24.75;36.30;99491.69;5113505;28;20038;-54
2022/08/01 16:11:36;;;;;;;8.98;2.60;;;;;;;24.72;36.02;99487.47;5113056;28;20034;-53
2022/08/01 16:14:02;;;;;;;3.83;2.53;;;;;;;24.72;35.79;99490.16;5112905;28;20047;-54
2022/08/01 16:16:28;;;;;;;5.32;2.67;;;;;;;24.74;35.92;99493.50;5112344;28;20041;-55
2022/08/01 16:18:54;;;;;;;5.03;2.38;;;;;;;24.73;35.97;99491.81;5113078;28;20507;-54
2022/08/01 16:21:21;;;;;;;7.72;2.47;;;;;;;24.51;35.96;99460.28;5112768;27;20059;-53
2022/08/01 16:23:47;;;;;;;4.68;2.58;;;;;;;24.70;35.69;99500.09;5112961;28;20058;-55
2022/08/01 16:26:13;;;;;;;5.63;2.30;;;;;;;24.67;35.93;99499.53;5113140;28;20058;-54
2022/08/01 16:28:39;;;;;;;6.07;2.40;;;;;;;24.62;36.21;99501.81;5111266;28;20431;-54
2022/08/01 16:31:05;;;;;;;5.25;2.38;;;;;;;24.58;36.12;99493.28;5112771;28;20027;-57
2022/08/01 16:33:31;;;;;;;7.18;2.60;;;;;;;24.51;36.13;99489.53;5112938;28;20047;-54
2022/08/01 16:35:57;;;;;;;3.92;2.72;;;;;;;24.48;36.29;99500.47;5113091;28;20036;-56
2022/08/01 16:38:24;;;;;;;2.90;2.22;;;;;;;24.41;36.28;99499.38;5112525;28;20048;-56
2022/08/01 16:40:50;;;;;;;5.10;2.35;;;;;;;24.34;36.56;99495.59;5112813;28;20039;-52
2022/08/01 16:43:17;;;;;;;7.43;2.78;;;;;;;24.27;36.51;99500.69;5112311;28;20101;-56
2022/08/01 16:45:43;;;;;;;6.43;2.45;;;;;;;24.20;37.21;99491.59;5111440;28;20066;-53
2022/08/01 16:48:19;;;;;;;10.00;2.65;;;;;;;24.13;37.31;99498.41;5112003;28;20134;-51
2022/08/01 16:50:48;;;;;;;6.10;2.58;;;;;;;24.04;37.13;99494.81;5111891;28;20079;-51
2022/08/01 16:53:17;;;;;;;8.23;2.70;;;;;;;24.02;37.35;99503.91;5112663;28;20043;-55
2022/08/01 16:55:45;;;;;;;4.25;2.40;;;;;;;23.95;37.44;99508.09;5112678;27;20054;-56
2022/08/01 16:58:15;;;;;;;5.32;2.58;;;;;;;23.71;37.72;99478.53;5111086;28;20514;-57
2022/08/01 17:00:42;;;;;;;6.78;2.55;;;;;;;23.77;38.18;99500.00;5112583;28;20823;-54
2022/08/01 17:03:12;;;;;;;5.90;2.90;;;;;;;23.56;38.17;99480.72;5112519;27;20074;-56
2022/08/01 17:05:39;;;;;;;4.53;2.40;;;;;;;23.67;38.37;99514.25;5112309;28;20415;-52
2022/08/01 17:08:07;;;;;;;3.33;2.42;;;;;;;23.59;38.55;99515.81;5112166;28;20036;-55
2022/08/01 17:10:33;;;;;;;7.40;2.43;;;;;;;23.53;38.43;99508.41;5112315;28;20088;-52
2022/08/01 17:12:59;;;;;;;7.18;2.95;;;;;;;23.48;38.67;99504.50;5112173;28;20088;-50
2022/08/01 17:15:25;;;;;;;7.20;2.30;;;;;;;23.40;38.76;99506.94;5111618;28;20493;-56
2022/08/01 17:17:53;;;;;;;4.57;2.05;;;;;;;23.34;38.66;99510.19;5112049;28;20164;-53
2022/08/01 17:20:22;;;;;;;4.85;2.85;;;;;;;23.33;38.54;99508.50;5111528;28;20055;-55
2022/08/01 17:22:48;;;;;;;9.43;2.30;;;;;;;23.29;38.60;99512.41;5111851;28;20101;-57
2022/08/01 17:25:14;;;;;;;6.28;2.30;;;;;;;23.08;38.40;99480.69;5111362;28;20514;-52
2022/08/01 17:27:40;;;;;;;9.40;2.70;;;;;;;23.00;38.78;99486.66;5110676;28;20130;-54
2022/08/01 17:30:06;;;;;;;5.45;3.10;;;;;;;22.96;38.97;99485.25;5111071;28;20075;-53
2022/08/01 17:32:35;;;;;;;4.05;2.25;;;;;;;23.07;38.76;99508.19;5112095;28;20088;-56
2022/08/01 17:35:01;;;;;;;5.78;2.50;;;;;;;22.86;38.81;99486.19;5111626;28;20039;-55
2022/08/01 17:37:29;;;;;;;4.18;2.33;;;;;;;23.01;38.91;99514.84;5111933;28;20126;-54
2022/08/01 17:39:55;;;;;;;6.45;2.40;;;;;;;23.00;38.50;99525.59;5111555;28;20511;-55
2022/08/01 17:42:20;;;;;;;5.63;2.72;;;;;;;22.98;38.66;99516.91;5111388;28;20039;-54
2022/08/01 17:44:46;;;;;;;5.53;3.00;;;;;;;22.93;38.63;99519.97;5111356;28;20031;-55
2022/08/01 17:47:12;;;;;;;6.47;3.28;;;;;;;22.88;38.85;99526.66;5111446;28;20116;-54
2022/08/01 17:49:38;;;;;;;10.73;3.90;;;;;;;22.79;38.93;99515.91;5109850;28;20119;-54
2022/08/01 17:52:04;;;;;;;7.85;4.40;;;;;;;22.80;38.92;99524.69;5110274;28;20134;-54
2022/08/01 17:54:30;;;;;;;8.15;3.63;;;;;;;22.73;39.26;99529.69;5111380;28;20138;-56
2022/08/01 17:56:56;;;;;;;11.32;5.07;;;;;;;22.63;39.74;99526.13;5109969;28;20043;-54
2022/08/01 17:59:23;;;;;;;5.32;3.65;;;;;;;22.54;40.34;99528.72;5110400;28;20054;-56
2022/08/01 18:01:49;;;;;;;7.70;4.18;;;;;;;22.26;41.12;99499.31;5110978;28;20031;-52
2022/08/01 18:04:14;;;;;;;10.20;4.57;;;;;;;22.35;41.34;99532.09;5110926;28;20107;-55
2022/08/01 18:06:40;;;;;;;11.48;5.80;;;;;;;22.23;41.61;99523.41;5111323;28;20514;-55
2022/08/01 18:09:08;;;;;;;9.30;5.40;;;;;;;22.16;41.54;99527.53;5110825;28;20485;-54
2022/08/01 18:11:34;;;;;;;8.48;5.78;;;;;;;22.07;41.31;99508.94;5111137;27;20506;-55
2022/08/01 18:14:00;;;;;;;10.75;5.35;;;;;;;22.00;41.60;99505.13;5110556;28;20043;-54
2022/08/01 18:16:26;;;;;;;10.88;5.88;;;;;;;22.08;42.07;99534.47;5110865;28;20122;-54
2022/08/01 18:18:52;;;;;;;12.05;5.90;;;;;;;21.86;42.67;99508.91;5110616;28;20039;-53
2022/08/01 18:21:18;;;;;;;12.63;5.97;;;;;;;21.93;42.69;99534.72;5110836;28;20396;-55
2022/08/01 18:23:44;;;;;;;15.82;6.15;;;;;;;21.89;42.95;99543.06;5110012;28;20047;-56
2022/08/01 18:26:10;;;;;;;14.93;9.13;;;;;;;21.87;43.08;99543.19;5110752;28;20054;-54
2022/08/01 18:28:39;;;;;;;13.20;7.07;;;;;;;21.80;43.44;99542.03;5108908;28;20046;-51
2022/08/01 18:31:05;;;;;;;13.73;6.70;;;;;;;21.54;43.65;99511.56;5108044;28;20056;-51
2022/08/01 18:33:35;;;;;;;13.52;8.45;;;;;;;21.65;44.24;99545.09;5110686;28;20052;-55
2022/08/01 18:36:01;;;;;;;14.30;6.88;;;;;;;21.40;44.25;99512.72;5109139;28;20046;-58
2022/08/01 18:38:28;;;;;;;9.70;4.28;;;;;;;21.59;44.39;99554.38;5109625;28;20046;-59
2022/08/01 18:40:54;;;;;;;15.07;5.10;;;;;;;21.59;44.41;99550.88;5110150;28;20051;-57
2022/08/01 18:43:19;;;;;;;14.57;6.55;;;;;;;21.56;44.26;99549.34;5108837;28;20503;-52
2022/08/01 18:45:46;;;;;;;20.67;10.18;;;;;;;21.56;44.61;99558.09;5109204;28;20082;-55
2022/08/01 18:48:11;;;;;;;8.93;4.07;;;;;;;21.59;44.20;99551.72;5109853;28;20039;-54
2022/08/01 18:50:38;;;;;;;19.75;11.88;;;;;;;21.64;44.18;99546.06;5108826;28;20051;-56
2022/08/01 18:53:04;;;;;;;10.70;4.50;;;;;;;21.48;44.26;99530.59;5108812;28;20046;-50
2022/08/01 18:55:30;;;;;;;10.32;5.93;;;;;;;21.50;44.22;99529.53;5109642;28;20039;-57
2022/08/01 18:57:55;;;;;;;7.22;3.80;;;;;;;21.59;44.58;99549.06;5109394;28;20499;-57
2022/08/01 19:00:21;;;;;;;12.98;6.05;;;;;;;21.52;44.42;99538.16;5109234;28;20047;-57
2022/08/01 19:02:49;;;;;;;13.95;7.28;;;;;;;21.56;44.58;99546.69;5091174;28;20044;-51
2022/08/01 19:05:17;;;;;;;12.95;8.07;;;;;;;21.50;45.40;99552.47;5109371;28;20090;-54
2022/08/01 19:07:43;;;;;;;16.15;6.70;;;;;;;21.43;45.86;99552.13;5110065;28;20415;-55
2022/08/01 19:10:11;;;;;;;11.57;3.83;;;;;;;21.40;45.90;99546.25;5109724;28;20072;-53
2022/08/01 19:12:36;;;;;;;10.20;3.95;;;;;;;21.37;45.28;99549.97;5095049;28;20043;-58
2022/08/01 19:15:03;;;;;;;14.45;6.15;;;;;;;21.36;45.62;99558.03;5112599;28;20043;-57
2022/08/01 19:17:29;;;;;;;13.00;4.18;;;;;;;21.30;45.86;99563.84;5113398;28;20043;-55
2022/08/01 19:19:55;;;;;;;9.25;5.13;;;;;;;21.29;45.77;99555.06;5114423;28;20457;-54
2022/08/01 19:22:21;;;;;;;18.42;8.00;;;;;;;21.12;46.03;99526.44;5113835;28;20046;-58
2022/08/01 19:24:47;;;;;;;16.88;9.63;;;;;;;21.22;46.40;99559.16;5111975;28;20040;-56
2022/08/01 19:27:16;;;;;;;15.65;8.25;;;;;;;21.16;46.85;99557.00;5108801;28;20424;-55
2022/08/01 19:29:56;;;;;;;13.27;5.13;;;;;;;21.09;47.41;99561.88;5120564;27;20036;-55
2022/08/01 19:32:23;;;;;;;6.65;4.25;;;;;;;21.02;47.57;99552.78;5089714;28;20568;-60
2022/08/01 19:35:10;;;;;;;7.68;4.20;;;;;;;21.02;47.40;99563.34;5103105;28;20482;-55
2022/08/01 19:37:39;;;;;;;14.85;9.00;;;;;;;21.01;47.52;99559.03;5102295;28;20438;-52
2022/08/01 19:40:06;;;;;;;16.58;7.03;;;;;;;20.95;47.71;99563.94;5101857;28;20082;-53
2022/08/01 19:42:32;;;;;;;8.52;4.43;;;;;;;20.93;47.66;99563.25;5106244;28;20035;-55
2022/08/01 19:44:58;;;;;;;9.18;4.95;;;;;;;20.94;47.77;99562.25;5105426;28;20031;-53
2022/08/01 19:47:24;;;;;;;14.52;5.50;;;;;;;20.89;48.11;99565.28;5111199;28;20074;-54
2022/08/01 19:49:50;;;;;;;22.15;11.65;;;;;;;20.83;48.33;99560.47;5105980;28;20131;-53
2022/08/01 19:52:18;;;;;;;9.50;5.53;;;;;;;20.80;48.59;99562.50;5101385;28;20636;-52
2022/08/01 19:54:46;;;;;;;10.25;6.10;;;;;;;20.73;49.11;99561.34;5105570;28;20550;-56
2022/08/01 19:57:14;;;;;;;12.50;5.75;;;;;;;20.38;49.63;99514.72;5097492;28;20530;-54
2022/08/01 19:59:44;;;;;;;12.07;5.40;;;;;;;20.43;49.93;99536.31;5108151;28;20528;-53
2022/08/01 20:02:14;;;;;;;15.02;4.68;;;;;;;20.61;49.72;99557.84;5104685;28;20130;-53
2022/08/01 20:04:41;;;;;;;11.23;4.97;;;;;;;20.58;49.90;99556.25;5102337;28;20508;-53
2022/08/01 20:07:07;;;;;;;10.35;4.03;;;;;;;20.57;50.04;99559.84;5109760;28;20046;-52
2022/08/01 20:09:33;;;;;;;13.00;5.40;;;;;;;20.62;49.61;99556.88;5107507;28;20036;-57
2022/08/01 20:11:59;;;;;;;5.47;3.42;;;;;;;20.66;49.19;99561.81;5102002;28;20415;-55
2022/08/01 20:14:25;;;;;;;9.23;4.70;;;;;;;20.69;48.89;99564.19;5107261;28;20503;-53
2022/08/01 20:16:55;;;;;;;8.55;3.30;;;;;;;20.68;49.11;99569.59;5103748;28;20123;-57
2022/08/01 20:19:24;;;;;;;11.32;4.35;;;;;;;20.65;49.36;99564.56;5102256;28;20524;-53
2022/08/01 20:21:54;;;;;;;;;;;;;;;20.57;49.96;99575.69;5093857;28;20028;-55
2022/08/01 20:24:22;;;;;;;8.65;3.90;;;;;;;20.46;50.46;99566.94;5094276;28;20466;-55
2022/08/01 20:26:49;;;;;;;9.73;3.70;;;;;;;20.37;50.98;99565.84;5094849;28;20526;-56
2022/08/01 20:29:16;;;;;;;7.55;3.70;;;;;;;20.32;51.11;99572.41;5105365;28;20036;-54
2022/08/01 20:31:46;;;;;;;7.75;4.05;;;;;;;20.26;51.55;99571.91;5105432;28;20031;-56
2022/08/01 20:34:20;;;;;;;12.25;4.50;;;;;;;20.22;51.85;99572.25;5099664;28;20047;-52
2022/08/01 20:36:46;;;;;;;8.25;4.00;;;;;;;20.16;51.78;99578.00;5105692;28;20035;-56
2022/08/01 20:39:13;;;;;;;9.13;3.70;;;;;;;20.15;51.67;99577.16;5098697;28;20043;-54
2022/08/01 20:41:39;;;;;;;9.18;3.95;;;;;;;20.14;51.74;99585.19;5104991;28;20481;-55
2022/08/01 20:44:07;;;;;;;7.95;3.70;;;;;;;20.11;52.04;99577.50;5107254;28;20047;-55
2022/08/01 20:46:32;;;;;;;8.43;3.75;;;;;;;20.07;52.36;99586.59;5089277;28;20118;-54
2022/08/01 20:48:58;;;;;;;7.13;4.15;;;;;;;20.00;52.27;99586.22;5107872;28;20489;-54
2022/08/01 20:51:25;;;;;;;13.15;5.30;;;;;;;20.00;51.98;99580.09;5100393;28;20044;-55
2022/08/01 20:53:52;;;;;;;13.10;6.47;;;;;;;19.98;52.21;99582.88;5099008;28;20043;-54
2022/08/01 20:56:26;;;;;;;13.07;6.15;;;;;;;19.93;52.79;99586.81;5107646;28;20513;-50
2022/08/01 20:59:18;;;;;;;10.40;6.03;;;;;;;19.86;53.12;99581.13;5103506;28;20049;-54
2022/08/01 21:01:57;;;;;;;11.63;4.75;;;;;;;19.82;53.29;99595.50;5108938;28;20036;-55
2022/08/01 21:04:49;;;;;;;12.25;4.18;;;;;;;19.68;53.62;99575.41;5105547;28;20049;-55
2022/08/01 21:07:23;;;;;;;8.05;4.18;;;;;;;19.73;53.86;99594.38;5105041;28;20126;-55
2022/08/01 21:10:19;;;;;;;13.15;4.82;;;;;;;19.71;54.11;99592.81;5104944;28;20074;-55
2022/08/01 21:12:55;;;;;;;10.15;4.50;;;;;;;19.68;54.29;99590.41;5091758;28;20036;-53
2022/08/01 21:15:33;;;;;;;14.65;4.75;;;;;;;19.64;54.59;99584.50;5105388;28;20067;-55
2022/08/01 21:17:59;;;;;;;10.23;4.40;;;;;;;19.61;54.65;99581.25;5108670;28;20032;-55
2022/08/01 21:20:31;;;;;;;10.30;4.95;;;;;;;19.59;54.88;99586.63;5102011;28;20284;-54
2022/08/01 21:23:26;;;;;;;13.60;3.88;;;;;;;19.58;55.00;99584.09;5110424;28;20411;-53
2022/08/01 21:25:53;;;;;;;11.88;4.88;;;;;;;19.55;55.03;99585.19;5098097;28;20044;-55
2022/08/01 21:28:19;;;;;;;8.02;4.38;;;;;;;19.52;55.33;99580.16;5109154;28;20537;-58
2022/08/01 21:30:46;;;;;;;8.45;3.60;;;;;;;19.49;55.71;99593.53;5109877;28;20039;-59
2022/08/01 21:33:12;;;;;;;8.75;4.50;;;;;;;19.43;55.78;99586.88;5111885;28;20127;-58
2022/08/01 21:35:39;;;;;;;11.15;4.38;;;;;;;19.39;56.21;99582.78;5109220;28;20043;-53
2022/08/01 21:38:07;;;;;;;9.80;4.50;;;;;;;19.37;56.25;99589.09;5092992;28;20130;-58
2022/08/01 21:40:33;;;;;;;9.90;4.43;;;;;;;19.33;56.33;99583.22;5111103;28;20044;-58
2022/08/01 21:43:01;;;;;;;11.10;4.55;;;;;;;19.31;56.31;99577.19;5110074;28;20043;-54
2022/08/01 21:45:28;;;;;;;6.72;4.15;;;;;;;19.29;56.47;99580.91;5110750;28;20047;-57
2022/08/01 21:47:55;;;;;;;8.30;4.30;;;;;;;19.27;56.66;99582.81;5109835;28;20426;-59
2022/08/01 21:50:22;;;;;;;8.20;4.55;;;;;;;19.20;56.73;99579.78;5107648;28;20054;-57
2022/08/01 21:53:23;;;;;;;13.80;5.18;;;;;;;19.19;56.84;99585.16;5090051;28;20572;-54
2022/08/01 21:56:03;;;;;;;10.93;4.43;;;;;;;19.15;57.01;99583.69;5067485;28;20048;-59
2022/08/01 21:58:34;;;;;;;12.63;4.32;;;;;;;19.11;57.10;99590.97;5106153;28;20049;-56
2022/08/01 22:01:37;;;;;;;12.50;4.45;;;;;;;19.08;57.07;99587.72;5110595;28;20039;-57
2022/08/01 22:04:07;;;;;;;15.48;4.53;;;;;;;18.87;57.01;99566.34;5106117;28;20051;-57
2022/08/01 22:06:33;;;;;;;8.85;4.35;;;;;;;19.04;56.97;99595.84;5111274;28;20054;-54
2022/08/01 22:09:05;;;;;;;8.95;4.25;;;;;;;19.00;57.02;99589.09;5110962;28;20159;-57
2022/08/01 22:11:33;;;;;;;11.88;4.35;;;;;;;18.98;57.09;99590.16;5110821;28;20035;-57
2022/08/01 22:14:03;;;;;;;7.72;4.15;;;;;;;18.96;57.06;99589.41;5109210;28;20571;-53
2022/08/01 22:16:30;;;;;;;9.07;4.07;;;;;;;18.94;57.26;99586.06;5110251;28;20046;-57
2022/08/01 22:18:56;;;;;;;13.25;4.85;;;;;;;18.81;57.23;99575.53;5110584;28;20043;-57
2022/08/01 22:21:22;;;;;;;6.80;3.67;;;;;;;18.73;57.30;99567.34;5108696;28;20582;-58
2022/08/01 22:23:50;;;;;;;8.60;4.57;;;;;;;18.87;57.47;99587.44;5110525;28;20036;-58
2022/08/01 22:26:17;;;;;;;8.90;3.80;;;;;;;18.87;57.56;99595.34;5110721;28;20031;-57
2022/08/01 22:28:43;;;;;;;11.13;4.32;;;;;;;18.86;57.33;99594.50;5109367;28;20074;-57
2022/08/01 22:31:09;;;;;;;7.88;4.07;;;;;;;18.86;57.27;99594.50;5108792;28;20419;-55